Time;durP1;ratioP1;P1;durP2;ratioP2;P2;SDS_P1;SDS_P2;PMS_P1;PMS_P2;Temp;Humidity;BMP_temperature;BMP_pressure;BME280_temperature;BME280_humidity;BME280_pressure;Samples;Min_cycle;Max_cycle;Signal;HPM_P1;HPM_P2
2022/03/30 00:02:12;;;;;;;10.80;10.50;;;10.40;99.90;;;;;;5136651;27;20285;-79
2022/03/30 00:04:40;;;;;;;10.60;10.30;;;10.50;99.90;;;;;;5136995;27;20331;-79
2022/03/30 00:07:07;;;;;;;10.57;10.27;;;10.50;99.90;;;;;;5137540;27;20259;-79
2022/03/30 00:09:35;;;;;;;10.40;10.10;;;10.60;99.90;;;;;;5137843;27;20252;-79
2022/03/30 00:12:03;;;;;;;10.20;9.90;;;10.60;99.90;;;;;;5142242;27;20248;-79
2022/03/30 00:14:30;;;;;;;10.33;10.03;;;10.60;99.90;;;;;;5138028;27;20262;-79
2022/03/30 00:16:59;;;;;;;10.57;10.27;;;10.60;99.90;;;;;;5137791;27;20266;-80
2022/03/30 00:19:27;;;;;;;10.40;10.10;;;10.60;99.90;;;;;;5138153;27;20232;-80
2022/03/30 00:21:55;;;;;;;10.50;10.20;;;10.60;99.90;;;;;;5137497;27;20331;-80
2022/03/30 00:24:22;;;;;;;10.87;10.57;;;10.60;99.90;;;;;;5137801;27;20251;-80
2022/03/30 00:26:50;;;;;;;11.10;10.80;;;10.60;99.90;;;;;;5137258;27;20224;-80
2022/03/30 00:29:18;;;;;;;10.50;10.20;;;10.60;99.90;;;;;;5136772;27;20228;-80
2022/03/30 00:31:46;;;;;;;10.70;10.40;;;10.50;99.90;;;;;;5136633;27;20239;-80
2022/03/30 00:34:15;;;;;;;10.73;10.43;;;10.50;99.90;;;;;;5137309;27;20290;-80
2022/03/30 00:36:42;;;;;;;10.63;10.33;;;10.50;99.90;;;;;;5136818;27;20308;-80
2022/03/30 00:39:10;;;;;;;10.60;10.30;;;10.50;99.90;;;;;;5137058;27;20232;-80
2022/03/30 00:41:38;;;;;;;10.47;10.17;;;10.50;99.90;;;;;;5149384;22;20264;-84
2022/03/30 00:44:10;;;;;;;10.57;10.27;;;10.50;99.90;;;;;;5118463;28;20237;-84
2022/03/30 00:46:38;;;;;;;10.20;9.90;;;10.50;99.90;;;;;;5119380;28;20232;-84
2022/03/30 00:49:06;;;;;;;10.30;10.00;;;10.50;99.90;;;;;;5119081;28;20233;-84
2022/03/30 00:51:35;;;;;;;10.60;10.30;;;10.60;99.90;;;;;;5126576;27;20239;-84
2022/03/30 00:54:04;;;;;;;10.73;10.43;;;10.60;99.90;;;;;;5139653;27;20216;-84
2022/03/30 00:56:35;;;;;;;10.70;10.40;;;10.60;99.90;;;;;;5139810;27;20563;-83
2022/03/30 00:59:05;;;;;;;10.60;10.30;;;10.60;99.90;;;;;;5140011;27;20232;-84
2022/03/30 01:01:33;;;;;;;10.60;10.30;;;10.60;99.90;;;;;;5140078;27;20285;-85
2022/03/30 01:04:04;;;;;;;10.70;10.40;;;10.60;99.90;;;;;;5139600;27;20227;-84
2022/03/30 01:06:32;;;;;;;10.40;10.10;;;10.60;99.90;;;;;;5140156;27;20409;-84
2022/03/30 01:09:01;;;;;;;10.93;10.63;;;10.50;99.90;;;;;;5143034;27;20278;-84
2022/03/30 01:11:30;;;;;;;10.83;10.53;;;10.50;99.90;;;;;;5144046;27;20228;-84
2022/03/30 01:13:58;;;;;;;11.00;10.70;;;10.40;99.90;;;;;;5142819;27;20314;-84
2022/03/30 01:16:25;;;;;;;11.17;10.87;;;10.50;99.90;;;;;;5143855;27;20229;-84
2022/03/30 01:19:05;;;;;;;10.70;10.40;;;10.40;99.90;;;;;;5155748;27;20234;-84
2022/03/30 01:21:35;;;;;;;10.60;10.30;;;10.40;99.90;;;;;;5147814;27;20238;-84
2022/03/30 01:24:03;;;;;;;10.33;10.03;;;10.40;99.90;;;;;;5146181;27;20232;-84
2022/03/30 01:26:30;;;;;;;10.50;10.20;;;10.40;99.90;;;;;;5147362;27;20235;-84
2022/03/30 01:28:58;;;;;;;10.37;10.07;;;10.30;99.90;;;;;;5145944;27;20253;-84
2022/03/30 01:34:11;;;;;;;10.83;10.53;;;10.40;99.90;;;;;;5146059;27;20208;-84
2022/03/30 01:36:40;;;;;;;10.73;10.43;;;10.30;99.90;;;;;;5145940;27;20225;-85
2022/03/30 01:39:08;;;;;;;10.70;10.40;;;10.30;99.90;;;;;;5147578;27;20224;-84
2022/03/30 01:41:36;;;;;;;10.83;10.53;;;10.30;99.90;;;;;;5161799;27;20235;-84
2022/03/30 01:44:03;;;;;;;10.83;10.53;;;10.30;99.90;;;;;;5159070;27;20232;-84
2022/03/30 01:46:31;;;;;;;10.80;10.50;;;10.20;99.90;;;;;;5146972;27;20282;-84
2022/03/30 01:48:59;;;;;;;10.93;10.63;;;10.20;99.90;;;;;;5146760;27;20227;-84
2022/03/30 01:51:27;;;;;;;11.00;10.70;;;10.20;99.90;;;;;;5145523;27;20995;-83
2022/03/30 01:53:56;;;;;;;11.03;10.73;;;10.20;99.90;;;;;;5145529;27;20224;-84
2022/03/30 01:56:23;;;;;;;11.33;11.00;;;10.20;99.90;;;;;;5145010;27;20247;-84
2022/03/30 01:58:51;;;;;;;11.50;11.10;;;10.10;99.90;;;;;;5144982;27;20228;-84
2022/03/30 02:01:20;;;;;;;11.43;11.03;;;10.10;99.90;;;;;;5144834;27;20315;-84
2022/03/30 02:03:47;;;;;;;11.60;11.20;;;10.00;99.90;;;;;;5144407;27;20324;-85
2022/03/30 02:06:16;;;;;;;11.80;11.40;;;10.00;99.90;;;;;;5144727;27;20246;-84
2022/03/30 02:08:44;;;;;;;11.30;10.97;;;9.90;99.90;;;;;;5144864;27;20401;-84
2022/03/30 02:11:13;;;;;;;11.47;11.07;;;9.90;99.90;;;;;;5144090;27;20256;-84
2022/03/30 02:13:41;;;;;;;11.00;10.70;;;9.90;99.90;;;;;;5144144;27;20687;-84
2022/03/30 02:16:09;;;;;;;11.03;10.73;;;9.90;99.90;;;;;;5144377;27;20228;-84
2022/03/30 02:18:36;;;;;;;11.07;10.77;;;9.90;99.90;;;;;;5143764;27;20235;-84
2022/03/30 02:21:04;;;;;;;10.60;10.30;;;9.90;99.90;;;;;;5143738;27;20236;-84
2022/03/30 02:23:32;;;;;;;11.20;10.90;;;9.90;99.90;;;;;;5143148;27;20404;-84
2022/03/30 02:26:00;;;;;;;11.57;11.17;;;9.80;99.90;;;;;;5144135;27;20235;-84
2022/03/30 02:28:29;;;;;;;11.67;11.27;;;9.80;99.90;;;;;;5146741;27;20224;-85
2022/03/30 02:30:57;;;;;;;11.00;10.70;;;9.80;99.90;;;;;;5146066;27;20224;-84
2022/03/30 02:33:25;;;;;;;10.83;10.53;;;9.80;99.90;;;;;;5144308;27;20221;-84
2022/03/30 02:35:52;;;;;;;10.60;10.30;;;9.80;99.90;;;;;;5144825;27;20231;-84
2022/03/30 02:38:20;;;;;;;10.70;10.40;;;9.80;99.90;;;;;;5144924;27;20281;-82
2022/03/30 02:40:48;;;;;;;10.50;10.20;;;9.90;99.90;;;;;;5144527;27;20281;-84
2022/03/30 02:43:19;;;;;;;10.83;10.53;;;9.80;99.90;;;;;;5143681;27;20220;-84
2022/03/30 02:45:49;;;;;;;10.80;10.50;;;9.80;99.90;;;;;;5144706;27;20327;-84
2022/03/30 02:48:19;;;;;;;10.60;10.30;;;9.80;99.90;;;;;;5153007;27;20232;-83
2022/03/30 02:50:48;;;;;;;10.67;10.37;;;9.80;99.90;;;;;;5155336;27;20251;-84
2022/03/30 02:53:16;;;;;;;10.57;10.27;;;9.70;99.90;;;;;;5148091;27;20251;-85
2022/03/30 02:55:44;;;;;;;10.50;10.20;;;9.70;99.90;;;;;;5144109;27;20285;-84
2022/03/30 02:58:12;;;;;;;10.37;10.07;;;9.70;99.90;;;;;;5143828;27;20232;-81
2022/03/30 03:00:41;;;;;;;10.50;10.20;;;9.70;99.90;;;;;;5144702;27;20228;-82
2022/03/30 03:03:11;;;;;;;10.30;10.00;;;9.70;99.90;;;;;;5143211;27;20228;-83
2022/03/30 03:05:41;;;;;;;10.57;10.27;;;9.70;99.90;;;;;;5144319;27;20239;-83
2022/03/30 03:08:12;;;;;;;10.40;10.10;;;9.60;99.90;;;;;;5144205;27;20235;-83
2022/03/30 03:10:42;;;;;;;10.10;9.80;;;9.60;99.90;;;;;;5144007;27;20238;-83
2022/03/30 03:13:11;;;;;;;10.00;9.70;;;9.60;99.90;;;;;;5143841;27;20285;-83
2022/03/30 03:15:39;;;;;;;10.30;10.00;;;9.60;99.90;;;;;;5144557;27;20236;-83
2022/03/30 03:18:07;;;;;;;10.40;10.10;;;9.60;99.90;;;;;;5144061;27;20252;-83
2022/03/30 03:20:36;;;;;;;10.70;10.40;;;9.60;99.90;;;;;;5143367;27;20309;-84
2022/03/30 03:23:04;;;;;;;10.43;10.13;;;9.70;99.90;;;;;;5141311;27;20246;-83
2022/03/30 03:25:34;;;;;;;10.67;10.37;;;9.60;99.90;;;;;;5142949;27;20232;-82
2022/03/30 03:28:03;;;;;;;10.37;10.07;;;9.60;99.90;;;;;;5142808;27;20291;-83
2022/03/30 03:30:31;;;;;;;10.13;9.83;;;9.70;99.90;;;;;;5142432;27;20258;-83
2022/03/30 03:32:59;;;;;;;9.97;9.67;;;9.70;99.90;;;;;;5142411;27;20236;-82
2022/03/30 03:35:27;;;;;;;9.77;9.47;;;9.70;99.90;;;;;;5142557;27;20231;-84
2022/03/30 03:37:57;;;;;;;9.90;9.60;;;9.70;99.90;;;;;;5142414;27;20235;-84
2022/03/30 03:40:25;;;;;;;9.63;9.33;;;9.70;99.90;;;;;;5143287;27;20232;-83
2022/03/30 03:42:53;;;;;;;9.90;9.60;;;9.80;99.90;;;;;;5143183;27;20228;-83
2022/03/30 03:45:21;;;;;;;9.33;9.03;;;9.80;99.90;;;;;;5142625;27;20231;-84
2022/03/30 03:47:49;;;;;;;10.00;9.70;;;9.80;99.90;;;;;;5143557;27;20224;-84
2022/03/30 03:50:17;;;;;;;10.13;9.83;;;9.80;99.90;;;;;;5143249;27;20277;-84
2022/03/30 03:52:45;;;;;;;10.60;10.30;;;9.80;99.90;;;;;;5142923;27;20327;-84
2022/03/30 03:55:14;;;;;;;10.53;10.23;;;9.70;99.90;;;;;;5142792;27;21007;-84
2022/03/30 03:57:43;;;;;;;10.60;10.30;;;9.70;99.90;;;;;;5142970;27;20285;-84
2022/03/30 04:00:13;;;;;;;10.20;9.90;;;9.60;99.90;;;;;;5142400;27;20311;-83
2022/03/30 04:02:42;;;;;;;10.50;10.20;;;9.50;99.90;;;;;;5141973;27;20228;-84
2022/03/30 04:05:10;;;;;;;10.50;10.20;;;9.50;99.90;;;;;;5141481;27;20228;-84
2022/03/30 04:07:39;;;;;;;10.40;10.10;;;9.50;99.90;;;;;;5141812;27;20228;-84
2022/03/30 04:10:07;;;;;;;10.93;10.63;;;9.60;99.90;;;;;;5141721;27;20239;-84
2022/03/30 04:12:37;;;;;;;10.60;10.30;;;9.70;99.90;;;;;;5141293;27;20258;-84
2022/03/30 04:15:06;;;;;;;10.80;10.50;;;9.70;99.90;;;;;;5141187;27;20235;-84
2022/03/30 04:17:34;;;;;;;10.97;10.67;;;9.70;99.90;;;;;;5141601;27;20267;-84
2022/03/30 04:20:02;;;;;;;10.90;10.60;;;9.70;99.90;;;;;;5142323;27;20290;-84
2022/03/30 04:22:30;;;;;;;10.33;10.03;;;9.70;99.90;;;;;;5141364;27;20236;-84
2022/03/30 04:24:58;;;;;;;10.60;10.30;;;9.70;99.90;;;;;;5141840;27;20247;-84
2022/03/30 04:27:25;;;;;;;10.60;10.30;;;9.80;99.90;;;;;;5141344;27;20248;-83
2022/03/30 04:29:54;;;;;;;10.40;10.10;;;9.80;99.90;;;;;;5141655;27;20258;-84
2022/03/30 04:32:22;;;;;;;10.20;9.90;;;9.80;99.90;;;;;;5140705;27;20674;-84
2022/03/30 04:34:49;;;;;;;10.47;10.17;;;9.80;99.90;;;;;;5141869;27;20235;-83
2022/03/30 04:37:17;;;;;;;10.47;10.17;;;9.80;99.90;;;;;;5142314;27;20232;-84
2022/03/30 04:39:45;;;;;;;10.20;9.90;;;9.80;99.90;;;;;;5142636;27;20262;-83
2022/03/30 04:42:14;;;;;;;10.47;10.17;;;9.90;99.90;;;;;;5142793;27;20293;-83
2022/03/30 04:44:42;;;;;;;10.60;10.30;;;9.90;99.90;;;;;;5147486;27;20288;-84
2022/03/30 04:47:12;;;;;;;10.50;10.20;;;9.90;99.90;;;;;;5147785;27;20231;-84
2022/03/30 04:49:39;;;;;;;10.80;10.50;;;9.90;99.90;;;;;;5147227;27;20235;-84
2022/03/30 04:52:09;;;;;;;10.23;9.93;;;9.90;99.90;;;;;;5150649;27;20293;-83
2022/03/30 04:54:38;;;;;;;10.80;10.50;;;9.90;99.90;;;;;;5158392;27;20250;-83
2022/03/30 04:57:06;;;;;;;11.10;10.80;;;9.90;99.90;;;;;;5160085;27;20239;-84
2022/03/30 04:59:34;;;;;;;11.47;11.07;;;9.90;99.90;;;;;;5147928;27;20234;-84
2022/03/30 05:02:01;;;;;;;10.70;10.40;;;9.90;99.90;;;;;;5146798;27;20289;-84
2022/03/30 05:04:32;;;;;;;11.00;10.70;;;9.90;99.90;;;;;;5156952;27;20224;-82
2022/03/30 05:07:00;;;;;;;10.73;10.43;;;9.90;99.90;;;;;;5158087;27;20232;-83
2022/03/30 05:09:27;;;;;;;11.20;10.90;;;9.90;99.90;;;;;;5141937;27;20254;-83
2022/03/30 05:11:55;;;;;;;11.00;10.70;;;9.90;99.90;;;;;;5142611;27;20239;-83
2022/03/30 05:14:23;;;;;;;10.70;10.40;;;9.90;99.90;;;;;;5159617;27;20216;-83
2022/03/30 05:16:51;;;;;;;10.63;10.33;;;9.90;99.90;;;;;;5160925;27;20233;-82
2022/03/30 05:19:18;;;;;;;10.53;10.23;;;9.90;99.90;;;;;;5160814;27;20254;-82
2022/03/30 05:21:48;;;;;;;10.73;10.43;;;10.00;99.90;;;;;;5161164;27;20342;-83
2022/03/30 05:24:15;;;;;;;10.83;10.53;;;9.90;99.90;;;;;;5161024;27;20231;-82
2022/03/30 05:26:43;;;;;;;10.80;10.50;;;10.00;99.90;;;;;;5161189;27;20240;-83
2022/03/30 05:29:11;;;;;;;10.60;10.30;;;10.00;99.90;;;;;;5154242;27;20220;-82
2022/03/30 05:31:42;;;;;;;10.50;10.20;;;10.00;99.90;;;;;;5152174;27;20236;-83
2022/03/30 05:34:10;;;;;;;11.00;10.70;;;10.00;99.90;;;;;;5152575;27;20228;-83
2022/03/30 05:36:37;;;;;;;11.30;10.90;;;10.00;99.90;;;;;;5152162;27;20304;-83
2022/03/30 05:39:06;;;;;;;11.10;10.80;;;9.90;99.90;;;;;;5152260;27;20231;-83
2022/03/30 05:41:34;;;;;;;11.20;10.80;;;10.00;99.90;;;;;;5150351;27;20240;-83
2022/03/30 05:44:02;;;;;;;10.90;10.60;;;9.90;99.90;;;;;;5150449;27;20232;-83
2022/03/30 05:46:30;;;;;;;11.30;10.90;;;9.90;99.90;;;;;;5147967;27;20296;-83
2022/03/30 05:48:58;;;;;;;11.57;11.17;;;9.90;99.90;;;;;;5148033;27;20281;-84
2022/03/30 05:51:26;;;;;;;11.70;11.30;;;9.90;99.90;;;;;;5146389;27;20236;-85
2022/03/30 05:53:54;;;;;;;11.50;11.10;;;9.90;99.90;;;;;;5145914;27;20232;-84
2022/03/30 05:57:00;;;;;;;11.70;11.30;;;9.90;99.90;;;;;;5146254;27;20238;-83
2022/03/30 05:59:11;;;;;;;11.80;11.40;;;9.90;99.90;;;;;;5145543;27;20296;-83
2022/03/30 06:01:39;;;;;;;11.70;11.30;;;9.90;99.90;;;;;;5145373;27;20239;-83
2022/03/30 06:04:07;;;;;;;11.30;10.90;;;9.90;99.90;;;;;;5146408;27;20621;-83
2022/03/30 06:06:35;;;;;;;11.33;10.93;;;9.90;99.90;;;;;;5145761;27;20236;-83
2022/03/30 06:09:07;;;;;;;11.37;10.97;;;9.90;99.90;;;;;;5145924;27;20232;-85
2022/03/30 06:11:36;;;;;;;11.23;10.83;;;9.90;99.90;;;;;;5145719;27;20232;-83
2022/03/30 06:14:04;;;;;;;11.00;10.70;;;10.00;99.90;;;;;;5145803;27;20282;-83
2022/03/30 06:16:32;;;;;;;10.77;10.47;;;10.00;99.90;;;;;;5145560;27;20277;-83
2022/03/30 06:19:01;;;;;;;10.90;10.60;;;10.00;99.90;;;;;;5146244;27;20258;-84
2022/03/30 06:21:30;;;;;;;11.50;11.10;;;10.00;99.90;;;;;;5145438;27;20234;-84
2022/03/30 06:23:58;;;;;;;11.50;11.10;;;10.00;99.90;;;;;;5145606;27;20228;-85
2022/03/30 06:26:26;;;;;;;11.37;10.97;;;10.00;99.90;;;;;;5144594;27;20228;-84
2022/03/30 06:28:56;;;;;;;11.40;11.00;;;10.10;99.90;;;;;;5145239;27;20224;-85
2022/03/30 06:31:24;;;;;;;11.03;10.73;;;10.00;99.90;;;;;;5145590;27;20266;-84
2022/03/30 06:33:52;;;;;;;11.70;11.30;;;10.00;99.90;;;;;;5146518;27;20220;-84
2022/03/30 06:36:19;;;;;;;10.93;10.63;;;10.00;99.90;;;;;;5145955;27;20228;-84
2022/03/30 06:38:47;;;;;;;10.63;10.33;;;10.00;99.90;;;;;;5145946;27;20232;-84
2022/03/30 06:41:17;;;;;;;11.00;10.70;;;10.00;99.90;;;;;;5164988;22;20259;-78
2022/03/30 06:43:46;;;;;;;10.90;10.60;;;10.00;99.90;;;;;;5096754;28;20232;-78
2022/03/30 06:46:16;;;;;;;10.80;10.50;;;10.10;99.90;;;;;;5097402;28;20318;-78
2022/03/30 06:48:45;;;;;;;10.67;10.37;;;10.10;99.90;;;;;;5097548;28;20320;-77
2022/03/30 06:51:13;;;;;;;10.63;10.33;;;10.10;99.90;;;;;;5098220;28;20237;-78
2022/03/30 06:53:41;;;;;;;10.50;10.20;;;10.20;99.90;;;;;;5117420;27;20255;-78
2022/03/30 06:56:12;;;;;;;10.70;10.40;;;10.20;99.90;;;;;;5117571;28;20236;-78
2022/03/30 06:58:40;;;;;;;10.80;10.50;;;10.20;99.90;;;;;;5118076;28;20263;-77
2022/03/30 07:01:07;;;;;;;10.97;10.67;;;10.30;99.90;;;;;;5117253;27;20242;-78
2022/03/30 07:03:38;;;;;;;10.57;10.27;;;10.20;99.90;;;;;;5117615;28;20252;-78
2022/03/30 07:06:06;;;;;;;11.03;10.73;;;10.30;99.90;;;;;;5116841;27;20661;-78
2022/03/30 07:11:18;;;;;;;10.90;10.60;;;10.30;99.90;;;;;;5117877;27;20307;-78
2022/03/30 07:13:46;;;;;;;11.10;10.80;;;10.30;99.90;;;;;;5117237;28;20224;-78
2022/03/30 07:16:14;;;;;;;11.13;10.83;;;10.20;99.90;;;;;;5117794;27;20267;-77
2022/03/30 07:18:43;;;;;;;11.23;10.90;;;10.20;99.90;;;;;;5118731;27;20252;-77
2022/03/30 07:21:11;;;;;;;11.53;11.13;;;10.10;99.90;;;;;;5117491;28;20263;-78
2022/03/30 07:23:39;;;;;;;10.83;10.53;;;10.00;99.90;;;;;;5121456;28;20288;-78
2022/03/30 07:26:07;;;;;;;11.00;10.70;;;9.90;99.90;;;;;;5117559;28;20244;-78
2022/03/30 07:28:35;;;;;;;11.50;11.10;;;9.90;99.90;;;;;;5117790;28;20281;-78
2022/03/30 07:31:03;;;;;;;11.10;10.80;;;9.90;99.90;;;;;;5117896;28;20232;-78
2022/03/30 07:33:33;;;;;;;11.30;11.00;;;9.90;99.90;;;;;;5117290;27;20216;-78
2022/03/30 07:36:02;;;;;;;11.57;11.17;;;9.90;99.90;;;;;;5117344;28;20244;-77
2022/03/30 07:38:31;;;;;;;11.70;11.30;;;9.90;99.90;;;;;;5117492;28;20229;-78
2022/03/30 07:41:02;;;;;;;11.37;11.03;;;9.80;99.90;;;;;;5117657;28;20232;-78
2022/03/30 07:43:29;;;;;;;11.00;10.70;;;9.90;99.90;;;;;;5116822;28;20235;-78
2022/03/30 07:45:57;;;;;;;11.17;10.87;;;9.90;99.90;;;;;;5117021;28;20272;-78
2022/03/30 07:48:25;;;;;;;11.30;11.00;;;9.90;99.90;;;;;;5117457;28;20255;-78
2022/03/30 07:50:53;;;;;;;11.30;11.00;;;9.90;99.90;;;;;;5118220;28;20271;-78
2022/03/30 07:53:22;;;;;;;10.60;10.30;;;9.90;99.90;;;;;;5118667;28;20237;-79
2022/03/30 07:55:49;;;;;;;11.00;10.70;;;9.90;99.90;;;;;;5118587;28;20233;-78
2022/03/30 07:58:17;;;;;;;10.63;10.33;;;9.90;99.90;;;;;;5119145;28;20228;-79
2022/03/30 08:00:45;;;;;;;10.90;10.60;;;9.90;99.90;;;;;;5119330;28;20217;-78
2022/03/30 08:03:12;;;;;;;10.77;10.47;;;9.90;99.90;;;;;;5118812;28;20270;-78
2022/03/30 08:05:40;;;;;;;10.63;10.33;;;10.00;99.90;;;;;;5118490;28;20315;-78
2022/03/30 08:08:08;;;;;;;10.90;10.60;;;10.00;99.90;;;;;;5118808;28;20228;-78
2022/03/30 08:10:38;;;;;;;11.20;10.87;;;10.00;99.90;;;;;;5118910;27;20260;-78
2022/03/30 08:13:07;;;;;;;11.00;10.70;;;10.00;99.90;;;;;;5117768;27;20228;-78
2022/03/30 08:15:38;;;;;;;11.00;10.70;;;10.00;99.90;;;;;;5119373;27;20255;-78
2022/03/30 08:18:07;;;;;;;10.93;10.63;;;10.00;99.90;;;;;;5121693;27;20228;-78
2022/03/30 08:23:20;;;;;;;11.00;10.70;;;10.00;99.90;;;;;;5121813;27;20299;-79
2022/03/30 08:25:51;;;;;;;11.10;10.80;;;10.10;99.90;;;;;;5122822;28;20286;-79
2022/03/30 08:28:18;;;;;;;10.93;10.63;;;10.10;99.90;;;;;;5132320;28;20228;-78
2022/03/30 08:30:48;;;;;;;10.73;10.43;;;10.10;99.90;;;;;;5138829;28;20252;-78
2022/03/30 08:33:18;;;;;;;10.90;10.60;;;10.10;99.90;;;;;;5134462;28;20221;-78
2022/03/30 08:35:46;;;;;;;10.97;10.67;;;10.10;99.90;;;;;;5133147;28;20243;-78
2022/03/30 08:38:14;;;;;;;10.97;10.67;;;10.20;99.90;;;;;;5132559;28;20232;-79
2022/03/30 08:40:41;;;;;;;11.00;10.70;;;10.20;99.90;;;;;;5124685;28;20244;-78
2022/03/30 08:43:10;;;;;;;10.60;10.30;;;10.20;99.90;;;;;;5125082;27;20298;-78
2022/03/30 08:45:38;;;;;;;10.60;10.30;;;10.20;99.90;;;;;;5124197;28;20315;-79
2022/03/30 08:48:06;;;;;;;10.60;10.30;;;10.20;99.90;;;;;;5123919;28;21121;-79
2022/03/30 08:50:34;;;;;;;10.67;10.37;;;10.30;99.90;;;;;;5123426;28;20282;-79
2022/03/30 08:53:06;;;;;;;10.33;10.03;;;10.30;99.90;;;;;;5122476;27;20312;-79
2022/03/30 08:55:34;;;;;;;10.90;10.60;;;10.30;99.90;;;;;;5122881;28;20274;-78
2022/03/30 08:58:02;;;;;;;10.57;10.27;;;10.30;99.90;;;;;;5122708;27;20323;-78
2022/03/30 09:00:34;;;;;;;10.57;10.27;;;10.30;99.90;;;;;;5123503;28;20285;-81
2022/03/30 09:03:03;;;;;;;10.70;10.40;;;10.30;99.90;;;;;;5129866;27;20245;-81
2022/03/30 09:05:32;;;;;;;10.30;10.00;;;10.30;99.90;;;;;;5124080;28;20240;-81
2022/03/30 09:08:11;;;;;;;10.27;9.97;;;10.30;99.90;;;;;;5124004;28;20268;-81
2022/03/30 09:10:40;;;;;;;10.50;10.20;;;10.30;99.90;;;;;;5123060;28;20305;-81
2022/03/30 09:13:09;;;;;;;10.47;10.17;;;10.30;99.90;;;;;;5122103;27;20247;-81
2022/03/30 09:15:39;;;;;;;10.47;10.17;;;10.30;99.90;;;;;;5122638;28;20278;-81
2022/03/30 09:18:09;;;;;;;10.40;10.10;;;10.30;99.90;;;;;;5122442;28;20255;-81
2022/03/30 09:20:39;;;;;;;10.60;10.30;;;10.40;99.90;;;;;;5128993;27;20285;-81
2022/03/30 09:23:09;;;;;;;10.90;10.60;;;10.40;99.90;;;;;;5121676;28;20220;-81
2022/03/30 09:25:37;;;;;;;10.80;10.50;;;10.40;99.90;;;;;;5123666;28;20229;-81
2022/03/30 09:28:05;;;;;;;10.50;10.20;;;10.40;99.90;;;;;;5121489;27;20272;-81
2022/03/30 09:30:34;;;;;;;11.20;10.80;;;10.40;99.90;;;;;;5121834;28;20290;-81
2022/03/30 09:33:03;;;;;;;10.80;10.50;;;10.40;99.90;;;;;;5121398;27;20221;-81
2022/03/30 09:35:38;;;;;;;10.50;10.20;;;10.40;99.90;;;;;;5122593;28;20254;-81
2022/03/30 09:38:09;;;;;;;11.00;10.60;;;10.30;99.90;;;;;;5121766;28;20239;-81
2022/03/30 09:40:44;;;;;;;11.00;10.60;;;10.20;99.90;;;;;;5121614;27;20228;-82
2022/03/30 09:43:25;;;;;;;11.10;10.70;;;10.20;99.90;;;;;;5121557;28;20264;-81
2022/03/30 09:46:09;;;;;;;10.73;10.43;;;10.10;99.90;;;;;;5122345;28;20290;-82
2022/03/30 09:48:44;;;;;;;11.13;10.73;;;10.00;99.90;;;;;;5122784;28;20704;-82
2022/03/30 09:51:12;;;;;;;10.83;10.53;;;9.90;99.90;;;;;;5123333;27;20224;-82
2022/03/30 09:53:39;;;;;;;10.80;10.50;;;10.00;99.90;;;;;;5129682;28;20225;-81
2022/03/30 09:56:09;;;;;;;11.10;10.70;;;9.90;99.90;;;;;;5140837;28;20224;-82
2022/03/30 09:58:39;;;;;;;10.80;10.50;;;9.90;99.90;;;;;;5137043;28;20237;-81
2022/03/30 10:01:19;;;;;;;10.80;10.50;;;9.90;99.90;;;;;;5120359;27;20286;-82
2022/03/30 10:03:52;;;;;;;10.83;10.53;;;10.00;99.90;;;;;;5120797;28;20217;-81
2022/03/30 10:06:22;;;;;;;10.80;10.50;;;10.10;99.90;;;;;;5120953;27;20227;-82
2022/03/30 10:08:52;;;;;;;10.70;10.40;;;10.10;99.90;;;;;;5120597;28;20306;-80
2022/03/30 10:11:21;;;;;;;10.80;10.50;;;10.20;99.90;;;;;;5120969;27;20235;-80
2022/03/30 10:13:53;;;;;;;11.27;10.87;;;10.20;99.90;;;;;;5120883;28;20221;-80
2022/03/30 10:16:21;;;;;;;10.80;10.50;;;10.20;99.90;;;;;;5123228;27;20239;-80
2022/03/30 10:18:52;;;;;;;11.20;10.80;;;10.30;99.90;;;;;;5124387;28;20259;-81
2022/03/30 10:21:26;;;;;;;10.40;10.10;;;10.30;99.90;;;;;;5124787;27;20229;-81
2022/03/30 10:24:19;;;;;;;10.20;9.90;;;10.30;99.90;;;;;;5121239;28;20229;-80
2022/03/30 10:27:00;;;;;;;10.30;10.00;;;10.40;99.90;;;;;;5119779;27;20332;-80
2022/03/30 10:29:32;;;;;;;10.40;10.10;;;10.40;99.90;;;;;;5117541;28;20257;-82
2022/03/30 10:32:18;;;;;;;10.10;9.80;;;10.50;99.90;;;;;;5117055;27;20232;-79
2022/03/30 10:35:11;;;;;;;10.10;9.80;;;10.40;99.90;;;;;;5117716;27;20278;-79
2022/03/30 10:37:41;;;;;;;10.63;10.33;;;10.40;99.90;;;;;;5115022;27;20296;-80
2022/03/30 10:40:16;;;;;;;10.60;10.30;;;10.50;99.90;;;;;;5118592;27;20229;-80
2022/03/30 10:43:02;;;;;;;11.00;10.60;;;10.50;99.90;;;;;;5117952;27;20319;-80
2022/03/30 10:45:48;;;;;;;10.70;10.40;;;10.50;99.90;;;;;;5118538;28;20220;-80
2022/03/30 10:48:21;;;;;;;10.50;10.20;;;10.50;99.90;;;;;;5119015;28;20294;-81
2022/03/30 10:50:54;;;;;;;10.10;9.80;;;10.50;99.90;;;;;;5120389;28;20323;-81
2022/03/30 10:53:49;;;;;;;10.10;9.80;;;10.50;99.90;;;;;;5119808;27;20240;-81
2022/03/30 10:56:49;;;;;;;10.50;10.20;;;10.60;99.90;;;;;;5118896;28;20331;-81
2022/03/30 10:59:17;;;;;;;10.37;10.07;;;10.70;99.90;;;;;;5105141;27;20228;-81
2022/03/30 11:01:46;;;;;;;10.40;10.10;;;10.70;99.90;;;;;;5119364;28;20236;-81
2022/03/30 11:04:32;;;;;;;10.60;10.30;;;10.80;99.90;;;;;;5118675;27;20229;-81
2022/03/30 11:07:40;;;;;;;10.80;10.50;;;10.90;99.90;;;;;;5119153;28;20258;-80
2022/03/30 11:10:46;;;;;;;10.97;10.67;;;10.90;99.90;;;;;;5119053;28;20256;-81
2022/03/30 11:13:14;;;;;;;10.97;10.67;;;10.90;99.90;;;;;;5117425;27;20236;-81
2022/03/30 11:16:14;;;;;;;10.60;10.30;;;10.90;99.90;;;;;;5118079;28;20312;-81
2022/03/30 11:19:04;;;;;;;10.77;10.47;;;10.90;99.90;;;;;;5128636;27;20213;-81
2022/03/30 11:21:32;;;;;;;10.60;10.30;;;10.90;99.90;;;;;;5120160;28;20236;-81
2022/03/30 11:24:20;;;;;;;10.40;10.10;;;10.90;99.90;;;;;;5118532;28;20228;-81
2022/03/30 11:27:22;;;;;;;10.80;10.50;;;10.90;99.90;;;;;;5118558;27;20228;-81
2022/03/30 11:30:11;;;;;;;10.80;10.50;;;11.00;99.90;;;;;;5117568;27;20323;-81
2022/03/30 11:33:01;;;;;;;10.67;10.37;;;11.10;99.90;;;;;;5116696;27;20232;-81
2022/03/30 11:35:33;;;;;;;10.50;10.20;;;11.20;99.90;;;;;;5117171;28;20243;-81
2022/03/30 11:38:09;;;;;;;10.30;10.00;;;11.30;99.90;;;;;;5116959;27;20225;-81
2022/03/30 11:40:41;;;;;;;10.00;9.70;;;11.50;99.90;;;;;;5116962;28;20258;-81
2022/03/30 11:43:11;;;;;;;10.13;9.83;;;11.50;99.90;;;;;;5116617;27;20268;-81
2022/03/30 11:45:39;;;;;;;10.43;10.13;;;11.50;99.90;;;;;;5134303;28;20240;-82
2022/03/30 11:48:10;;;;;;;9.93;9.63;;;11.50;99.90;;;;;;5139570;28;20237;-82
2022/03/30 11:50:40;;;;;;;10.67;10.37;;;11.60;99.90;;;;;;5139822;27;20228;-82
2022/03/30 11:53:11;;;;;;;10.27;9.97;;;11.70;99.90;;;;;;5136135;27;20232;-81
2022/03/30 11:55:53;;;;;;;10.90;10.60;;;11.80;99.90;;;;;;5122075;27;20272;-81
2022/03/30 11:58:31;;;;;;;10.30;10.00;;;11.80;99.90;;;;;;5119383;27;20306;-81
2022/03/30 12:01:03;;;;;;;10.90;10.60;;;11.80;99.90;;;;;;5119437;28;20294;-81
2022/03/30 12:03:34;;;;;;;10.60;10.30;;;11.70;99.90;;;;;;5119621;27;20278;-81
2022/03/30 12:06:04;;;;;;;10.87;10.57;;;11.60;99.90;;;;;;5119232;28;20987;-81
2022/03/30 12:08:42;;;;;;;10.40;10.10;;;11.50;99.90;;;;;;5119173;27;20238;-81
2022/03/30 12:11:11;;;;;;;10.60;10.30;;;11.40;99.90;;;;;;5118985;28;20231;-81
2022/03/30 12:13:39;;;;;;;10.63;10.33;;;11.40;99.90;;;;;;5118861;28;20295;-81
2022/03/30 12:16:09;;;;;;;10.67;10.37;;;11.40;99.90;;;;;;5121498;28;20604;-81
2022/03/30 12:18:45;;;;;;;10.70;10.40;;;11.40;99.90;;;;;;5120588;28;20221;-81
2022/03/30 12:21:16;;;;;;;10.80;10.50;;;11.40;99.90;;;;;;5118796;28;20288;-81
2022/03/30 12:23:54;;;;;;;10.70;10.40;;;11.30;99.90;;;;;;5118633;28;20297;-81
2022/03/30 12:26:24;;;;;;;10.97;10.67;;;11.30;99.90;;;;;;5118875;28;20288;-81
2022/03/30 12:28:52;;;;;;;11.17;10.87;;;11.20;99.90;;;;;;5119152;28;20335;-81
2022/03/30 12:31:19;;;;;;;10.63;10.33;;;11.20;99.90;;;;;;5118764;28;20249;-81
2022/03/30 12:33:50;;;;;;;11.00;10.70;;;11.10;99.90;;;;;;5119311;28;20260;-81
2022/03/30 12:36:20;;;;;;;10.70;10.40;;;11.10;99.90;;;;;;5123753;28;20229;-80
2022/03/30 12:38:50;;;;;;;10.87;10.57;;;10.90;99.90;;;;;;5125184;28;20232;-81
2022/03/30 12:41:26;;;;;;;10.60;10.30;;;10.80;99.90;;;;;;5120300;27;20240;-81
2022/03/30 12:44:01;;;;;;;10.70;10.40;;;10.70;99.90;;;;;;5141764;22;20240;-84
2022/03/30 12:46:31;;;;;;;10.50;10.20;;;10.70;99.90;;;;;;5121984;28;20274;-84
2022/03/30 12:49:10;;;;;;;10.70;10.40;;;10.70;99.90;;;;;;5121415;28;20237;-85
2022/03/30 12:51:44;;;;;;;10.40;10.10;;;10.70;99.90;;;;;;5122197;28;20235;-85
2022/03/30 12:54:32;;;;;;;10.40;10.10;;;10.70;99.90;;;;;;5140924;27;20285;-84
2022/03/30 12:57:07;;;;;;;10.30;10.00;;;10.70;99.90;;;;;;5142529;27;20228;-83